createdAt,value
2023-05-22T00:00:54.402Z,19.04
2023-05-22T00:04:10.367Z,19.05
2023-05-22T00:07:25.374Z,19.12
2023-05-22T00:10:27.232Z,19.15
2023-05-22T00:13:42.384Z,19.13
2023-05-22T00:16:50.990Z,19.08
2023-05-22T00:20:02.413Z,19.01
2023-05-22T00:23:17.410Z,19.02
2023-05-22T00:26:20.610Z,19.07
2023-05-22T00:29:35.370Z,18.95
2023-05-22T00:32:50.431Z,18.95
2023-05-22T00:35:59.428Z,19.01
2023-05-22T00:39:08.035Z,19.05
2023-05-22T00:42:16.371Z,19.07
2023-05-22T00:45:38.388Z,19.00
2023-05-22T00:48:40.276Z,19.03
2023-05-22T00:51:56.417Z,18.97
2023-05-22T00:55:05.718Z,18.98
2023-05-22T00:58:33.399Z,18.91
2023-05-22T01:01:35.761Z,18.79
2023-05-22T01:04:54.432Z,18.65
2023-05-22T01:07:56.319Z,18.73
2023-05-22T01:11:20.405Z,18.66
2023-05-22T01:14:47.423Z,18.66
2023-05-22T01:18:14.432Z,18.63
2023-05-22T01:21:21.493Z,18.57
2023-05-22T01:25:10.412Z,18.48
2023-05-22T01:28:42.105Z,18.45
2023-05-22T01:32:01.416Z,18.40
2023-05-22T01:35:14.381Z,18.35
2023-05-22T01:38:23.112Z,18.29
2023-05-22T01:41:41.425Z,18.25
2023-05-22T01:45:04.400Z,18.23
2023-05-22T01:48:13.383Z,18.19
2023-05-22T01:51:53.592Z,18.14
2023-05-22T01:55:16.392Z,18.11
2023-05-22T01:58:36.397Z,18.07
2023-05-22T02:01:45.796Z,18.08
2023-05-22T02:05:07.424Z,18.10
2023-05-22T02:08:17.262Z,17.88
2023-05-22T02:11:29.381Z,17.84
2023-05-22T02:14:44.379Z,17.71
2023-05-22T02:17:53.055Z,17.65
2023-05-22T02:21:08.393Z,17.62
2023-05-22T02:24:17.406Z,17.64
2023-05-22T02:27:25.975Z,17.59
2023-05-22T02:30:40.624Z,17.57
2023-05-22T02:33:55.400Z,17.51
2023-05-22T02:37:10.431Z,17.55
2023-05-22T02:40:19.400Z,17.54
2023-05-22T02:43:34.655Z,17.51
2023-05-22T02:46:43.452Z,17.46
2023-05-22T02:49:52.018Z,17.51
2023-05-22T02:53:00.380Z,17.50
2023-05-22T02:56:09.939Z,17.46
2023-05-22T02:59:18.399Z,17.46
2023-05-22T03:02:33.562Z,17.41
2023-05-22T03:05:48.411Z,17.38
2023-05-22T03:08:56.958Z,17.33
2023-05-22T03:12:12.389Z,17.27
2023-05-22T03:15:14.378Z,17.18
2023-05-22T03:18:36.452Z,17.25
2023-05-22T03:21:38.928Z,17.19
2023-05-22T03:24:53.433Z,17.19
2023-05-22T03:28:08.441Z,17.08
2023-05-22T03:31:16.991Z,17.16
2023-05-22T03:34:25.400Z,17.09
2023-05-22T03:37:33.960Z,17.12
2023-05-22T03:40:48.430Z,17.07
2023-05-22T03:44:10.409Z,17.10
2023-05-22T03:47:18.993Z,17.08
2023-05-22T03:50:33.445Z,17.10
2023-05-22T03:53:35.292Z,17.07
2023-05-22T03:56:50.432Z,17.14
2023-05-22T03:59:58.970Z,17.18
2023-05-22T04:03:07.544Z,17.18
2023-05-22T04:06:22.433Z,17.24
2023-05-22T04:09:38.456Z,17.26
2023-05-22T04:12:53.408Z,17.39
2023-05-22T04:16:02.122Z,17.48
2023-05-22T04:19:17.437Z,17.56
2023-05-22T04:22:27.316Z,17.55
2023-05-22T04:25:42.427Z,17.68
2023-05-22T04:28:51.425Z,17.73
2023-05-22T04:31:59.968Z,17.76
2023-05-22T04:35:14.429Z,17.75
2023-05-22T04:38:22.943Z,17.87
2023-05-22T04:41:37.454Z,17.96
2023-05-22T04:44:59.422Z,18.00
2023-05-22T04:48:07.473Z,18.07
2023-05-22T04:51:16.088Z,18.14
2023-05-22T04:54:24.420Z,18.18
2023-05-22T04:57:39.489Z,18.20
2023-05-22T05:00:54.476Z,18.35
2023-05-22T05:04:03.625Z,18.39
2023-05-22T05:07:18.486Z,18.39
2023-05-22T05:10:33.429Z,18.45
2023-05-22T05:13:48.432Z,18.52
2023-05-22T05:16:56.443Z,18.58
2023-05-22T05:20:05.678Z,18.65
2023-05-22T05:23:14.429Z,18.71
2023-05-22T05:26:22.989Z,18.69
2023-05-22T05:29:31.429Z,18.84
2023-05-22T05:32:40.148Z,18.84
2023-05-22T05:35:48.415Z,18.89
2023-05-22T05:39:03.428Z,18.90
2023-05-22T05:42:18.421Z,18.95
2023-05-22T05:45:26.667Z,18.94
2023-05-22T05:48:41.473Z,18.97
2023-05-22T05:51:43.319Z,19.03
2023-05-22T05:54:58.445Z,19.08
2023-05-22T05:58:14.587Z,19.13
2023-05-22T06:01:23.028Z,19.14
2023-05-22T06:04:31.466Z,19.22
2023-05-22T06:07:46.419Z,19.22
2023-05-22T06:11:01.471Z,19.26
2023-05-22T06:14:05.301Z,19.33
2023-05-22T06:17:20.478Z,19.46
2023-05-22T06:20:28.934Z,19.59
2023-05-22T06:23:37.471Z,19.72
2023-05-22T06:26:52.455Z,19.78
2023-05-22T06:30:07.530Z,19.73
2023-05-22T06:33:09.509Z,19.75
2023-05-22T06:36:31.433Z,19.85
2023-05-22T06:39:40.497Z,20.08
2023-05-22T06:42:50.430Z,20.38
2023-05-22T06:46:05.799Z,20.66
2023-05-22T06:49:20.510Z,20.63
2023-05-22T06:52:29.033Z,20.52
2023-05-22T06:55:43.439Z,20.68
2023-05-22T06:58:58.466Z,21.01
2023-05-22T07:02:07.879Z,21.38
2023-05-22T07:05:16.455Z,21.41
2023-05-22T07:08:27.791Z,21.57
2023-05-22T07:11:37.477Z,21.75
2023-05-22T07:14:52.433Z,21.70
2023-05-22T07:18:07.528Z,21.54
2023-05-22T07:21:22.445Z,21.38
2023-05-22T07:24:24.415Z,21.40
2023-05-22T07:27:39.453Z,21.35
2023-05-22T07:30:47.991Z,21.86
2023-05-22T07:34:02.471Z,22.27
2023-05-22T07:37:08.717Z,21.99
2023-05-22T07:40:24.435Z,22.01
2023-05-22T07:43:40.725Z,21.97
2023-05-22T07:46:55.491Z,22.20
2023-05-22T07:50:04.569Z,22.02
2023-05-22T07:53:13.474Z,21.92
2023-05-22T07:56:28.457Z,21.80
2023-05-22T07:59:43.459Z,21.80
2023-05-22T08:02:58.595Z,21.84
2023-05-22T08:06:07.372Z,22.13
2023-05-22T08:09:15.488Z,22.65
2023-05-22T08:12:30.462Z,22.34
2023-05-22T08:15:45.540Z,22.22
2023-05-22T08:18:54.510Z,22.26
2023-05-22T08:22:09.473Z,22.57
2023-05-22T08:25:24.545Z,22.47
2023-05-22T08:28:26.460Z,22.35
2023-05-22T08:31:41.483Z,22.23
2023-05-22T08:34:43.325Z,22.56
2023-05-22T08:37:58.450Z,23.09
2023-05-22T08:41:14.487Z,23.70
2023-05-22T08:47:41.551Z,24.29
2023-05-22T08:50:51.475Z,24.75
2023-05-22T08:54:08.543Z,24.63
2023-05-22T08:57:10.855Z,24.75
2023-05-22T09:00:27.505Z,24.30
2023-05-22T09:03:30.641Z,23.85
2023-05-22T09:06:46.260Z,24.06
2023-05-22T09:09:50.153Z,24.29
2023-05-22T09:13:15.483Z,24.16
2023-05-22T09:16:24.494Z,23.83
2023-05-22T09:19:33.181Z,24.28
2023-05-22T09:22:48.467Z,25.11
2023-05-22T09:26:05.456Z,25.76
2023-05-22T09:29:20.507Z,26.00
2023-05-22T09:32:23.100Z,25.17
2023-05-22T09:35:39.488Z,24.95
2023-05-22T09:38:41.527Z,25.43
2023-05-22T09:41:57.535Z,25.69
2023-05-22T09:45:07.419Z,25.85
2023-05-22T09:48:23.491Z,25.97
2023-05-22T09:51:42.499Z,26.24
2023-05-22T09:54:50.903Z,26.22
2023-05-22T09:58:10.479Z,26.62
2023-05-22T10:01:19.757Z,26.00
2023-05-22T10:04:38.530Z,25.48
2023-05-22T10:07:59.344Z,25.24
2023-05-22T10:11:07.500Z,25.63
2023-05-22T10:14:23.496Z,26.07
2023-05-22T10:17:42.532Z,26.26
2023-05-22T10:20:51.883Z,26.22
2023-05-22T10:24:08.508Z,26.42
2023-05-22T10:27:16.520Z,25.98
2023-05-22T10:30:43.751Z,25.60
2023-05-22T10:34:05.681Z,25.59
2023-05-22T10:37:53.913Z,26.23
2023-05-22T10:41:04.712Z,26.72
2023-05-22T10:44:28.562Z,27.07
2023-05-22T10:47:44.742Z,27.21
2023-05-22T10:51:01.543Z,26.95
2023-05-22T10:54:10.211Z,26.60
2023-05-22T10:57:25.569Z,27.22
2023-05-22T11:00:44.650Z,27.24
2023-05-22T11:04:00.506Z,27.70
2023-05-22T11:07:09.199Z,27.40
2023-05-22T11:10:17.580Z,27.24
2023-05-22T11:13:29.005Z,27.54
2023-05-22T11:16:41.562Z,27.33
2023-05-22T11:20:06.205Z,27.87
2023-05-22T11:23:24.543Z,27.89
2023-05-22T11:26:28.112Z,27.77
2023-05-22T11:29:43.506Z,28.20
2023-05-22T11:32:46.055Z,28.49
2023-05-22T11:36:01.662Z,28.30
2023-05-22T11:39:21.591Z,28.46
2023-05-22T11:42:30.643Z,28.26
2023-05-22T11:45:52.519Z,28.10
2023-05-22T11:49:07.529Z,28.15
2023-05-22T11:52:16.870Z,28.35
2023-05-22T11:55:25.523Z,27.87
2023-05-22T11:58:40.530Z,28.51
2023-05-22T12:01:52.474Z,28.76
2023-05-22T12:05:01.545Z,29.05
2023-05-22T12:08:16.537Z,29.16
2023-05-22T12:11:26.581Z,29.29
2023-05-22T12:14:36.538Z,28.95
2023-05-22T12:17:51.580Z,28.35
2023-05-22T12:21:01.539Z,28.09
2023-05-22T12:24:16.560Z,28.15
2023-05-22T12:27:18.502Z,28.36
2023-05-22T12:30:33.550Z,28.30
2023-05-22T12:33:48.552Z,28.68
2023-05-22T12:37:03.590Z,28.92
2023-05-22T12:40:18.577Z,28.42
2023-05-22T12:43:40.538Z,28.47
2023-05-22T12:46:55.665Z,28.72
2023-05-22T12:49:57.547Z,28.60
2023-05-22T12:53:12.540Z,28.62
2023-05-22T12:56:21.122Z,28.84
2023-05-22T12:59:35.536Z,28.69
2023-05-22T13:02:50.594Z,28.47
2023-05-22T13:06:05.551Z,28.31
2023-05-22T13:09:14.235Z,28.42
2023-05-22T13:12:23.798Z,28.18
2023-05-22T13:15:33.239Z,27.94
2023-05-22T13:18:48.586Z,27.86
2023-05-22T13:21:58.415Z,28.11
2023-05-22T13:25:15.573Z,28.48
2023-05-22T13:28:30.593Z,28.58
2023-05-22T13:31:32.469Z,28.35
2023-05-22T13:34:48.687Z,28.19
2023-05-22T13:37:57.609Z,28.04
2023-05-22T13:41:06.283Z,28.00
2023-05-22T13:44:14.625Z,28.20
2023-05-22T13:47:29.880Z,28.33
2023-05-22T13:50:38.632Z,28.08
2023-05-22T13:53:53.596Z,28.19
2023-05-22T13:57:08.646Z,28.03
2023-05-22T14:00:17.575Z,27.72
2023-05-22T14:03:26.575Z,27.27
2023-05-22T14:06:35.133Z,27.49
2023-05-22T14:09:49.563Z,27.90
2023-05-22T14:12:57.633Z,28.03
2023-05-22T14:16:12.596Z,28.11
2023-05-22T14:19:14.552Z,28.35
2023-05-22T14:22:30.599Z,28.20
2023-05-22T14:25:41.888Z,27.67
2023-05-22T14:28:50.599Z,27.88
2023-05-22T14:32:04.243Z,28.02
2023-05-22T14:35:19.602Z,27.67
2023-05-22T14:38:31.222Z,27.35
2023-05-22T14:41:39.585Z,27.21
2023-05-22T14:45:01.641Z,27.18
2023-05-22T14:48:03.733Z,26.98
2023-05-22T14:51:18.596Z,26.82
2023-05-22T14:54:20.566Z,26.65
2023-05-22T14:57:35.597Z,26.63
2023-05-22T15:00:50.604Z,26.57
2023-05-22T15:03:52.603Z,26.48
2023-05-22T15:07:07.677Z,26.39
2023-05-22T15:10:16.196Z,26.40
2023-05-22T15:13:30.635Z,26.38
2023-05-22T15:16:39.219Z,26.34
2023-05-22T15:19:53.607Z,26.33
2023-05-22T15:22:55.466Z,26.53
2023-05-22T15:26:10.595Z,26.51
2023-05-22T15:29:12.582Z,26.49
2023-05-22T15:32:27.704Z,26.61
2023-05-22T15:35:36.153Z,26.82
2023-05-22T15:38:50.624Z,26.92
2023-05-22T15:42:06.276Z,27.01
2023-05-22T15:45:21.610Z,27.17
2023-05-22T15:48:30.237Z,27.09
2023-05-22T15:51:44.627Z,27.10
2023-05-22T15:54:54.944Z,27.10
2023-05-22T15:58:05.155Z,27.21
2023-05-22T16:01:19.639Z,27.31
2023-05-22T16:04:28.261Z,27.31
2023-05-22T16:07:42.614Z,27.35
2023-05-22T16:10:51.696Z,27.43
2023-05-22T16:14:06.657Z,27.17
2023-05-22T16:17:14.662Z,27.15
2023-05-22T16:20:23.195Z,26.86
2023-05-22T16:23:37.638Z,26.59
2023-05-22T16:26:46.196Z,26.58
2023-05-22T16:29:54.643Z,26.60
2023-05-22T16:33:03.208Z,26.44
2023-05-22T16:36:11.657Z,26.66
2023-05-22T16:39:20.209Z,26.55
2023-05-22T16:42:28.649Z,26.52
2023-05-22T16:45:43.900Z,26.53
2023-05-22T16:48:58.658Z,26.41
2023-05-22T16:52:13.685Z,26.39
2023-05-22T16:55:22.269Z,26.39
2023-05-22T16:58:36.658Z,26.22
2023-05-22T17:01:45.234Z,25.66
2023-05-22T17:04:53.666Z,25.38
2023-05-22T17:08:02.196Z,24.95
2023-05-22T17:11:16.641Z,24.66
2023-05-22T17:14:31.624Z,24.58
2023-05-22T17:17:33.660Z,24.51
2023-05-22T17:20:48.629Z,24.52
2023-05-22T17:23:56.686Z,24.58
2023-05-22T17:27:05.366Z,24.57
2023-05-22T17:30:20.645Z,24.60
2023-05-22T17:33:23.727Z,24.40
2023-05-22T17:36:38.677Z,24.43
2023-05-22T17:39:53.658Z,24.28
2023-05-22T17:43:08.656Z,24.22
2023-05-22T17:46:23.970Z,24.08
2023-05-22T17:49:32.653Z,23.06
2023-05-22T17:52:41.237Z,21.80
2023-05-22T17:55:56.634Z,20.72
2023-05-22T17:59:05.653Z,20.37
2023-05-22T18:02:14.213Z,20.22
2023-05-22T18:05:28.637Z,20.13
2023-05-22T18:08:43.670Z,20.05
2023-05-22T18:11:45.639Z,19.87
2023-05-22T18:15:00.746Z,19.79
2023-05-22T18:18:12.091Z,19.74
2023-05-22T18:21:21.789Z,19.75
2023-05-22T18:24:36.722Z,19.76
2023-05-22T18:27:51.683Z,19.77
2023-05-22T18:31:07.706Z,19.75
2023-05-22T18:34:22.679Z,19.78
2023-05-22T18:37:37.679Z,19.77
2023-05-22T18:40:39.793Z,19.76
2023-05-22T18:43:54.649Z,19.72
2023-05-22T18:47:03.064Z,19.72
2023-05-22T18:50:18.671Z,19.66
2023-05-22T18:53:33.658Z,19.71
2023-05-22T18:56:42.725Z,19.67
2023-05-22T18:59:58.675Z,19.58
2023-05-22T19:03:14.650Z,19.46
2023-05-22T19:06:17.469Z,19.47
2023-05-22T19:09:33.661Z,19.48
2023-05-22T19:12:36.520Z,19.52
2023-05-22T19:15:52.677Z,19.25
2023-05-22T19:19:09.723Z,19.38
2023-05-22T19:22:19.870Z,19.34
2023-05-22T19:25:35.934Z,19.34
2023-05-22T19:28:51.699Z,19.22
2023-05-22T19:32:07.715Z,19.21
2023-05-22T19:35:31.690Z,19.10
2023-05-22T19:39:00.682Z,19.14
2023-05-22T19:42:18.690Z,19.08
2023-05-22T19:45:45.705Z,19.02
2023-05-22T19:49:17.668Z,19.06
2023-05-22T19:52:44.700Z,19.10
2023-05-22T19:56:01.059Z,19.09
2023-05-22T19:59:25.714Z,19.10
2023-05-22T20:02:42.716Z,19.06
2023-05-22T20:06:00.679Z,19.05
2023-05-22T20:09:18.671Z,19.02
2023-05-22T20:12:34.689Z,19.05
2023-05-22T20:16:09.700Z,19.11
2023-05-22T20:19:20.175Z,19.09
2023-05-22T20:22:37.665Z,19.14
2023-05-22T20:25:39.694Z,19.07
2023-05-22T20:28:54.677Z,19.04
2023-05-22T20:32:09.724Z,19.09
2023-05-22T20:35:12.634Z,19.05
2023-05-22T20:38:27.705Z,18.91
2023-05-22T20:41:42.691Z,18.88
2023-05-22T20:44:44.918Z,18.87
2023-05-22T20:47:59.754Z,18.77
2023-05-22T20:51:08.278Z,18.74
2023-05-22T20:54:23.687Z,18.75
2023-05-22T20:57:38.697Z,18.73
2023-05-22T21:00:47.238Z,18.73
2023-05-22T21:04:01.785Z,18.75
2023-05-22T21:07:16.694Z,18.78
2023-05-22T21:10:25.210Z,18.84
2023-05-22T21:13:39.713Z,18.71
2023-05-22T21:16:41.613Z,18.69
2023-05-22T21:19:56.675Z,18.67
2023-05-22T21:23:05.277Z,18.62
2023-05-22T21:26:13.721Z,18.49
2023-05-22T21:29:22.233Z,18.46
2023-05-22T21:32:30.765Z,18.43
2023-05-22T21:35:45.701Z,18.53
2023-05-22T21:38:47.686Z,18.49
2023-05-22T21:42:02.732Z,18.42
2023-05-22T21:45:18.084Z,18.39
2023-05-22T21:48:26.748Z,18.41
2023-05-22T21:51:35.318Z,18.39
2023-05-22T21:54:43.708Z,18.33
2023-05-22T22:01:24.758Z,18.26
2023-05-22T22:04:39.696Z,18.24
2023-05-22T22:07:48.285Z,18.20
2023-05-22T22:10:56.707Z,18.13
2023-05-22T22:14:05.320Z,18.07
2023-05-22T22:17:19.698Z,18.05
2023-05-22T22:20:30.340Z,17.99
2023-05-22T22:23:54.721Z,17.79
2023-05-22T22:27:09.715Z,17.73
2023-05-22T22:30:11.777Z,17.67
2023-05-22T22:33:27.701Z,17.66
2023-05-22T22:36:29.606Z,17.68
2023-05-22T22:39:44.702Z,17.63
2023-05-22T22:42:52.768Z,17.68
2023-05-22T22:46:07.992Z,17.68
2023-05-22T22:49:22.729Z,17.66
2023-05-22T22:52:24.824Z,17.61
2023-05-22T22:55:40.103Z,17.55
2023-05-22T22:58:48.701Z,17.51
2023-05-22T23:02:03.745Z,17.56
2023-05-22T23:05:07.090Z,17.59
2023-05-22T23:08:21.710Z,17.47
2023-05-22T23:11:36.747Z,17.44
2023-05-22T23:14:45.266Z,17.36
2023-05-22T23:17:59.750Z,17.32
2023-05-22T23:21:08.257Z,17.27
2023-05-22T23:24:22.698Z,17.21
2023-05-22T23:27:31.227Z,17.21
2023-05-22T23:30:45.703Z,17.27
2023-05-22T23:34:00.742Z,17.21
2023-05-22T23:37:02.997Z,17.21
2023-05-22T23:40:17.731Z,17.19
2023-05-22T23:43:20.779Z,17.16
2023-05-22T23:46:42.801Z,17.20
2023-05-22T23:49:51.703Z,17.15
2023-05-22T23:53:06.714Z,17.11
2023-05-22T23:56:21.725Z,17.11
2023-05-22T23:59:36.731Z,17.04
